Time;durP1;ratioP1;P1;durP2;ratioP2;P2;SDS_P1;SDS_P2;PMS_P1;PMS_P2;Temp;Humidity;BMP_temperature;BMP_pressure;BME280_temperature;BME280_humidity;BME280_pressure;Samples;Min_cycle;Max_cycle;Signal;HPM_P1;HPM_P2
2023/06/03 00:01:50;;;;;;;23.98;10.20;;;;;;;11.36;100.00;100108.94;5133647;27;20590;-82
2023/06/03 00:04:34;;;;;;;25.10;10.27;;;;;;;11.26;100.00;100096.84;5131882;27;20167;-84
2023/06/03 00:07:18;;;;;;;28.13;10.80;;;;;;;11.27;100.00;100095.88;5130408;27;20065;-84
2023/06/03 00:10:02;;;;;;;33.30;11.65;;;;;;;11.14;100.00;100090.34;5131859;27;20108;-86
2023/06/03 00:12:47;;;;;;;28.63;11.13;;;;;;;11.29;100.00;100104.38;5133824;27;20068;-86
2023/06/03 00:15:31;;;;;;;33.03;12.38;;;;;;;11.23;100.00;100105.09;5116223;27;20420;-86
2023/06/03 00:18:15;;;;;;;32.47;11.52;;;;;;;11.32;100.00;100097.16;5133264;27;20042;-84
2023/06/03 00:21:01;;;;;;;32.95;11.82;;;;;;;11.45;100.00;100101.84;5133389;27;20080;-84
2023/06/03 00:23:45;;;;;;;35.45;10.95;;;;;;;11.35;100.00;100096.81;5115961;27;20046;-83
2023/06/03 00:26:30;;;;;;;25.42;11.20;;;;;;;11.47;100.00;100103.31;5118017;27;20519;-83
2023/06/03 00:29:13;;;;;;;30.08;12.00;;;;;;;11.43;100.00;100096.78;5128919;27;20050;-85
2023/06/03 00:31:58;;;;;;;30.15;10.90;;;;;;;11.47;100.00;100100.69;5132215;27;20074;-85
2023/06/03 00:34:42;;;;;;;27.10;11.30;;;;;;;11.41;100.00;100096.13;5130940;27;20392;-83
2023/06/03 00:37:26;;;;;;;27.98;11.45;;;;;;;11.55;100.00;100076.94;5133228;27;20046;-83
2023/06/03 00:40:10;;;;;;;25.20;11.55;;;;;;;11.53;100.00;100088.66;5130354;27;20446;-83
2023/06/03 00:42:55;;;;;;;29.08;11.00;;;;;;;11.52;100.00;100090.44;5133108;27;20064;-84
2023/06/03 00:45:39;;;;;;;35.85;12.10;;;;;;;11.37;100.00;100079.88;5130854;27;20503;-83
2023/06/03 00:48:23;;;;;;;29.38;11.70;;;;;;;11.43;100.00;100088.88;5132712;27;20436;-84
2023/06/03 00:51:07;;;;;;;30.85;10.77;;;;;;;11.49;100.00;100093.44;5130905;27;20038;-84
2023/06/03 00:53:51;;;;;;;29.33;11.88;;;;;;;11.65;100.00;100107.47;5116871;27;20092;-83
2023/06/03 00:56:43;;;;;;;24.77;10.40;;;;;;;11.73;100.00;100088.19;5132036;27;20127;-84
2023/06/03 00:59:27;;;;;;;28.92;10.55;;;;;;;11.71;100.00;100086.56;5129757;27;20042;-83
2023/06/03 01:02:13;;;;;;;20.83;9.55;;;;;;;11.69;100.00;100100.84;5128409;27;20058;-85
2023/06/03 01:04:57;;;;;;;20.70;8.95;;;;;;;11.38;100.00;100096.44;5128736;27;20046;-84
2023/06/03 01:08:00;;;;;;;28.27;9.85;;;;;;;11.48;100.00;100102.31;5129464;27;20091;-84
2023/06/03 01:10:49;;;;;;;28.95;9.32;;;;;;;11.50;100.00;100084.56;5116269;27;20046;-83
2023/06/03 01:13:53;;;;;;;27.95;9.75;;;;;;;11.59;100.00;100093.19;5130912;27;20446;-83
2023/06/03 01:16:44;;;;;;;27.38;9.07;;;;;;;11.57;100.00;100095.19;5130578;27;20103;-84
2023/06/03 01:19:47;;;;;;;30.33;10.38;;;;;;;11.60;100.00;100096.66;5132807;27;20095;-84
2023/06/03 01:22:36;;;;;;;29.77;9.23;;;;;;;11.67;100.00;100102.84;5132521;27;20580;-84
2023/06/03 01:25:21;;;;;;;28.52;8.70;;;;;;;11.82;100.00;100098.47;5129847;28;20046;-84
2023/06/03 01:28:05;;;;;;;29.20;8.57;;;;;;;11.83;100.00;100094.84;5114086;28;20392;-84
2023/06/03 01:30:50;;;;;;;30.30;9.35;;;;;;;11.72;100.00;100087.34;5127435;28;20046;-84
2023/06/03 01:33:35;;;;;;;27.98;8.80;;;;;;;11.98;100.00;100097.50;5129561;27;20499;-84
2023/06/03 01:36:19;;;;;;;29.65;8.88;;;;;;;11.82;100.00;100087.13;5130027;28;20042;-85
2023/06/03 01:39:03;;;;;;;29.05;9.00;;;;;;;11.92;100.00;100092.13;5132217;28;20115;-84
2023/06/03 01:41:49;;;;;;;26.13;8.35;;;;;;;11.79;100.00;100085.69;5128272;27;20042;-83
2023/06/03 01:44:33;;;;;;;19.38;8.52;;;;;;;11.91;100.00;100091.34;5131362;28;20034;-85
2023/06/03 01:47:17;;;;;;;24.70;9.80;;;;;;;11.84;100.00;100080.69;5131807;28;20168;-84
2023/06/03 01:50:03;;;;;;;32.08;9.18;;;;;;;11.92;100.00;100082.44;5130154;28;20042;-85
2023/06/03 01:52:47;;;;;;;28.20;9.52;;;;;;;11.84;100.00;100085.97;5130673;28;20122;-85
2023/06/03 01:55:31;;;;;;;21.23;8.80;;;;;;;11.93;100.00;100093.78;5131758;28;20054;-85
2023/06/03 01:58:15;;;;;;;25.35;8.75;;;;;;;11.79;100.00;100088.31;5129758;28;20038;-83
2023/06/03 02:00:59;;;;;;;28.15;9.02;;;;;;;11.71;100.00;100083.09;5116151;28;20045;-83
2023/06/03 02:03:45;;;;;;;22.38;8.65;;;;;;;11.95;100.00;100082.09;5115382;28;20046;-83
2023/06/03 02:06:30;;;;;;;35.03;9.23;;;;;;;11.78;100.00;100083.22;5130361;27;20046;-85
2023/06/03 02:09:14;;;;;;;36.85;9.90;;;;;;;12.02;100.00;100086.66;5131540;28;20454;-83
2023/06/03 02:12:00;;;;;;;25.40;8.98;;;;;;;12.09;100.00;100083.13;5128411;28;20037;-83
2023/06/03 02:14:44;;;;;;;25.95;9.73;;;;;;;12.07;100.00;100094.81;5117156;28;20404;-82
2023/06/03 02:17:29;;;;;;;22.60;9.13;;;;;;;12.09;100.00;100093.66;5131440;28;20087;-82
2023/06/03 02:20:14;;;;;;;30.67;8.93;;;;;;;12.07;100.00;100087.75;5116273;28;20144;-82
2023/06/03 02:23:01;;;;;;;27.17;8.90;;;;;;;12.05;100.00;100086.28;5129268;28;20503;-82
2023/06/03 02:25:45;;;;;;;23.80;9.00;;;;;;;12.03;100.00;100083.84;5125758;28;20042;-83
2023/06/03 02:28:29;;;;;;;28.20;8.00;;;;;;;12.08;100.00;100080.66;5131444;27;20083;-83
2023/06/03 02:31:15;;;;;;;17.38;7.45;;;;;;;12.02;100.00;100086.66;5134599;27;20504;-83
2023/06/03 02:33:59;;;;;;;23.95;8.23;;;;;;;11.62;100.00;100084.16;5119092;27;20503;-84
2023/06/03 02:36:46;;;;;;;23.75;8.85;;;;;;;11.70;100.00;100068.31;5132743;27;20556;-83
2023/06/03 02:39:30;;;;;;;32.90;9.02;;;;;;;11.88;100.00;100075.06;5133292;27;20038;-85
2023/06/03 02:42:14;;;;;;;30.15;9.32;;;;;;;11.96;100.00;100073.19;5131304;27;20096;-84
2023/06/03 02:44:58;;;;;;;19.58;8.13;;;;;;;12.06;100.00;100090.56;5134741;27;20042;-85
2023/06/03 02:47:42;;;;;;;20.60;7.65;;;;;;;11.91;100.00;100079.97;5132721;27;20248;-85
2023/06/03 02:50:26;;;;;;;26.33;8.77;;;;;;;11.75;100.00;100071.22;5134993;27;20053;-84
2023/06/03 02:53:11;;;;;;;22.52;8.52;;;;;;;11.96;100.00;100077.63;5119435;27;20541;-83
2023/06/03 02:55:55;;;;;;;24.38;9.15;;;;;;;11.93;100.00;100083.25;5132007;27;20618;-83
2023/06/03 02:58:39;;;;;;;23.00;7.40;;;;;;;11.77;100.00;100082.38;5134440;27;20038;-84
2023/06/03 03:01:24;;;;;;;22.17;7.80;;;;;;;12.17;100.00;100089.31;5118845;27;20088;-83
2023/06/03 03:04:08;;;;;;;23.73;9.00;;;;;;;11.76;100.00;100082.56;5134297;27;20038;-82
2023/06/03 03:06:54;;;;;;;24.52;8.50;;;;;;;11.71;100.00;100085.72;5129540;27;20037;-82
2023/06/03 03:09:38;;;;;;;19.83;7.55;;;;;;;11.68;100.00;100086.06;5132670;27;20122;-82
2023/06/03 03:12:22;;;;;;;29.23;8.20;;;;;;;11.59;100.00;100098.47;5132200;27;20042;-83
2023/06/03 03:15:07;;;;;;;22.00;7.75;;;;;;;11.70;100.00;100086.72;5132342;27;20050;-82
2023/06/03 03:17:51;;;;;;;21.70;8.05;;;;;;;11.78;100.00;100091.91;5133940;27;20081;-83
2023/06/03 03:20:36;;;;;;;19.52;8.07;;;;;;;11.60;100.00;100088.78;5132692;27;20046;-82
2023/06/03 03:23:20;;;;;;;27.08;8.38;;;;;;;11.63;100.00;100093.69;5133719;27;20088;-81
2023/06/03 03:26:07;;;;;;;21.25;8.93;;;;;;;11.66;100.00;100096.75;5133021;27;20042;-82
2023/06/03 03:28:52;;;;;;;28.95;9.55;;;;;;;11.85;100.00;100086.75;5135222;27;20503;-82
2023/06/03 03:31:36;;;;;;;29.05;9.07;;;;;;;11.42;100.00;100097.75;5116804;27;20069;-82
2023/06/03 03:34:21;;;;;;;29.20;9.27;;;;;;;11.82;100.00;100082.69;5133443;27;20519;-83
2023/06/03 03:37:05;;;;;;;22.15;7.80;;;;;;;11.51;100.00;100096.69;5133930;27;20050;-83
2023/06/03 03:39:49;;;;;;;27.80;8.32;;;;;;;11.38;100.00;100086.75;5128811;27;20504;-83
2023/06/03 03:42:32;;;;;;;26.27;7.78;;;;;;;11.69;100.00;100093.81;5133178;27;20111;-82
2023/06/03 03:45:19;;;;;;;22.27;8.35;;;;;;;11.85;100.00;100084.13;5136179;27;20042;-82
2023/06/03 03:48:06;;;;;;;25.27;9.10;;;;;;;11.98;100.00;100088.78;5130667;27;20042;-83
2023/06/03 03:50:51;;;;;;;26.05;9.93;;;;;;;12.05;100.00;100087.13;5131173;27;20537;-84
2023/06/03 03:53:36;;;;;;;18.55;7.97;;;;;;;11.28;100.00;100092.25;5133488;27;20054;-84
2023/06/03 03:56:22;;;;;;;27.27;8.90;;;;;;;11.66;100.00;100090.69;5132798;27;20416;-84
2023/06/03 03:59:07;;;;;;;22.02;7.82;;;;;;;11.25;100.00;100076.81;5133543;27;20059;-83
2023/06/03 04:01:51;;;;;;;24.05;9.23;;;;;;;11.76;100.00;100080.75;5133806;27;20056;-83
2023/06/03 04:04:42;;;;;;;20.42;8.15;;;;;;;11.63;100.00;100078.72;5133223;27;20050;-83
2023/06/03 04:07:28;;;;;;;20.55;7.40;;;;;;;11.79;100.00;100087.47;5129929;27;20080;-82
2023/06/03 04:10:13;;;;;;;20.35;8.40;;;;;;;11.82;100.00;100090.59;5117445;27;20092;-82
2023/06/03 04:12:57;;;;;;;26.27;9.27;;;;;;;11.82;100.00;100090.59;5130567;27;20038;-81
2023/06/03 04:15:41;;;;;;;24.88;10.18;;;;;;;11.82;100.00;100082.69;5131180;27;20112;-82
2023/06/03 04:18:26;;;;;;;21.17;9.23;;;;;;;11.91;100.00;100085.25;5116316;27;20058;-82
2023/06/03 04:21:14;;;;;;;28.55;8.85;;;;;;;12.13;100.00;100092.31;5131296;27;20062;-83
2023/06/03 04:23:58;;;;;;;24.48;9.35;;;;;;;11.90;100.00;100100.22;5132427;27;20503;-84
2023/06/03 04:26:42;;;;;;;18.30;8.18;;;;;;;12.13;100.00;100102.84;5117666;27;20084;-82
2023/06/03 04:29:26;;;;;;;24.48;7.93;;;;;;;12.25;100.00;100091.88;5133090;27;20123;-82
2023/06/03 04:32:10;;;;;;;24.63;8.43;;;;;;;11.88;100.00;100085.59;5131204;27;20106;-81
2023/06/03 04:34:55;;;;;;;20.13;7.85;;;;;;;11.92;100.00;100106.13;5117719;27;20097;-83
2023/06/03 04:37:39;;;;;;;21.20;7.90;;;;;;;11.63;100.00;100097.13;5132868;27;20041;-84
2023/06/03 04:40:23;;;;;;;26.80;8.02;;;;;;;11.75;100.00;100110.66;5131367;27;20443;-83
2023/06/03 04:43:11;;;;;;;17.60;7.43;;;;;;;11.63;100.00;100114.72;5132783;27;20033;-84
2023/06/03 04:45:55;;;;;;;20.80;7.03;;;;;;;11.80;100.00;100116.25;5132679;27;20042;-83
2023/06/03 04:48:45;;;;;;;20.98;7.03;;;;;;;12.02;100.00;100112.97;5115760;27;20045;-83
2023/06/03 04:51:33;;;;;;;28.02;6.88;;;;;;;11.93;100.00;100104.28;5133086;27;20046;-83
2023/06/03 04:54:23;;;;;;;22.48;7.13;;;;;;;11.10;100.00;100112.69;5129001;27;21466;-84
2023/06/03 04:57:07;;;;;;;25.00;7.05;;;;;;;11.58;100.00;100108.16;5130979;27;20223;-85
2023/06/03 04:59:52;;;;;;;25.60;7.13;;;;;;;11.53;100.00;100107.06;5132602;27;20076;-82
2023/06/03 05:02:36;;;;;;;14.15;6.28;;;;;;;11.83;100.00;100115.06;5132876;27;20443;-82
2023/06/03 05:05:23;;;;;;;24.60;7.20;;;;;;;11.87;100.00;100121.59;5130518;27;20050;-84
2023/06/03 05:08:07;;;;;;;20.48;6.93;;;;;;;11.51;100.00;100117.75;5131777;27;20077;-83
2023/06/03 05:10:52;;;;;;;19.77;7.07;;;;;;;11.72;100.00;100113.66;5131911;27;20038;-83
2023/06/03 05:13:36;;;;;;;26.80;6.85;;;;;;;11.79;100.00;100108.50;5132649;27;20088;-83
2023/06/03 05:16:20;;;;;;;26.45;7.72;;;;;;;12.17;100.00;100107.72;5129726;27;20078;-83
2023/06/03 05:19:04;;;;;;;20.00;6.38;;;;;;;12.42;100.00;100103.88;5129562;27;20160;-83
2023/06/03 05:21:48;;;;;;;18.60;7.05;;;;;;;12.51;100.00;100103.78;5115668;27;20053;-81
2023/06/03 05:24:32;;;;;;;13.65;5.50;;;;;;;12.68;100.00;100107.09;5131659;27;20091;-83
2023/06/03 05:27:17;;;;;;;28.30;7.75;;;;;;;12.61;100.00;100100.88;5130052;27;20046;-86
2023/06/03 05:30:01;;;;;;;22.15;6.45;;;;;;;12.64;100.00;100096.09;5130712;27;20092;-86
2023/06/03 05:32:45;;;;;;;14.75;5.97;;;;;;;12.06;100.00;100101.09;5116120;28;20061;-85
2023/06/03 05:35:29;;;;;;;22.55;7.07;;;;;;;12.43;100.00;100107.31;5130423;28;20038;-85
2023/06/03 05:38:13;;;;;;;20.75;6.43;;;;;;;12.41;100.00;100107.53;5131025;28;20132;-86
2023/06/03 05:40:57;;;;;;;25.02;7.50;;;;;;;12.12;100.00;100093.31;5130554;28;20042;-85
2023/06/03 05:43:41;;;;;;;20.65;7.85;;;;;;;12.10;100.00;100103.19;5116317;28;20507;-85
2023/06/03 05:46:25;;;;;;;17.73;7.18;;;;;;;12.50;100.00;100097.72;5132232;28;20503;-83
2023/06/03 05:49:09;;;;;;;25.90;7.53;;;;;;;12.49;100.00;100108.44;5127785;28;20504;-84
2023/06/03 05:51:53;;;;;;;21.35;7.35;;;;;;;12.85;100.00;100103.22;5127395;28;20046;-84
2023/06/03 05:54:37;;;;;;;25.95;7.43;;;;;;;12.70;100.00;100105.88;5116522;28;20568;-84
2023/06/03 05:57:23;;;;;;;25.13;8.30;;;;;;;12.35;100.00;100104.78;5131177;28;20535;-83
2023/06/03 06:00:08;;;;;;;18.83;7.68;;;;;;;12.64;100.00;100105.78;5130403;28;20042;-83
2023/06/03 06:02:52;;;;;;;21.02;7.78;;;;;;;12.59;100.00;100106.34;5130120;27;20046;-83
2023/06/03 06:05:36;;;;;;;23.20;8.93;;;;;;;12.46;100.00;100108.78;5130481;27;20088;-82
2023/06/03 06:08:20;;;;;;;24.52;7.88;;;;;;;12.35;100.00;100096.88;5134757;27;20039;-83
2023/06/03 06:11:04;;;;;;;26.05;9.15;;;;;;;12.94;100.00;100111.88;5133737;27;20042;-82
2023/06/03 06:13:48;;;;;;;18.95;8.30;;;;;;;12.61;100.00;100091.19;5135207;27;20087;-81
2023/06/03 06:16:32;;;;;;;17.67;8.40;;;;;;;12.78;100.00;100112.09;5119763;27;20030;-84
2023/06/03 06:19:16;;;;;;;17.88;8.27;;;;;;;13.36;100.00;100100.78;5134883;27;20057;-84
2023/06/03 06:22:00;;;;;;;22.85;9.02;;;;;;;13.05;100.00;100099.22;5133106;27;20041;-83
2023/06/03 06:24:43;;;;;;;;;;;;;;;13.26;100.00;100103.72;5133992;27;20037;-85
2023/06/03 06:27:29;;;;;;;22.08;7.82;;;;;;;13.50;100.00;100099.16;5135787;27;20380;-84
2023/06/03 06:30:17;;;;;;;18.08;7.57;;;;;;;13.91;100.00;100102.97;5133317;27;20545;-84
2023/06/03 06:33:01;;;;;;;15.45;7.55;;;;;;;12.53;100.00;100099.16;5132174;27;20034;-85
2023/06/03 06:35:45;;;;;;;19.08;7.50;;;;;;;12.75;100.00;100110.63;5135467;27;20095;-83
2023/06/03 06:38:29;;;;;;;26.55;6.60;;;;;;;12.30;100.00;100102.69;5128142;27;20556;-85
2023/06/03 06:41:15;;;;;;;22.33;7.30;;;;;;;12.66;100.00;100099.34;5116090;27;20046;-84
2023/06/03 06:44:00;;;;;;;22.70;7.72;;;;;;;13.14;100.00;100108.66;5134871;27;20115;-84
2023/06/03 06:46:46;;;;;;;17.85;7.57;;;;;;;13.43;100.00;100099.06;5134294;27;20050;-86
2023/06/03 06:49:35;;;;;;;18.92;6.68;;;;;;;13.35;100.00;100113.16;5118728;27;20107;-85
2023/06/03 06:52:21;;;;;;;16.98;6.40;;;;;;;13.51;100.00;100098.94;5131649;27;20042;-84
2023/06/03 06:55:13;;;;;;;16.83;6.68;;;;;;;14.06;100.00;100106.34;5134432;27;20050;-84
2023/06/03 06:57:57;;;;;;;20.50;6.90;;;;;;;13.26;100.00;100104.53;5133681;27;20054;-83
2023/06/03 07:00:42;;;;;;;24.20;7.18;;;;;;;13.88;100.00;100090.16;5134305;27;20123;-84
2023/06/03 07:03:26;;;;;;;19.27;7.15;;;;;;;13.90;100.00;100098.69;5133659;27;20442;-84
2023/06/03 07:06:10;;;;;;;14.10;6.55;;;;;;;13.53;100.00;100096.94;5131692;27;20119;-84
2023/06/03 07:08:54;;;;;;;15.02;6.75;;;;;;;13.56;100.00;100101.84;5134365;27;20511;-84
2023/06/03 07:11:48;;;;;;;15.35;6.55;;;;;;;13.97;100.00;100099.59;5133976;27;20042;-84
2023/06/03 07:14:33;;;;;;;21.23;7.03;;;;;;;13.45;100.00;100097.06;5134261;27;20049;-85
2023/06/03 07:17:17;;;;;;;23.70;7.30;;;;;;;13.54;100.00;100103.84;5132931;27;20050;-85
2023/06/03 07:20:04;;;;;;;21.63;7.60;;;;;;;13.54;100.00;100101.19;5133955;27;20088;-84
2023/06/03 07:22:49;;;;;;;20.85;8.00;;;;;;;13.56;100.00;100109.78;5130265;27;20046;-82
2023/06/03 07:25:32;;;;;;;21.15;6.97;;;;;;;13.88;100.00;100113.91;5133973;27;20071;-82
2023/06/03 07:28:20;;;;;;;18.17;6.18;;;;;;;13.83;100.00;100103.91;5134343;27;20042;-85
2023/06/03 07:31:08;;;;;;;20.50;7.20;;;;;;;14.31;100.00;100100.63;5133624;27;20095;-84
2023/06/03 07:33:55;;;;;;;18.42;7.38;;;;;;;14.96;100.00;100099.59;5133602;27;20119;-79
2023/06/03 07:36:39;;;;;;;20.05;7.20;;;;;;;14.70;100.00;100098.44;5131481;27;20082;-80
2023/06/03 07:39:23;;;;;;;10.90;6.90;;;;;;;14.32;100.00;100101.44;5133555;27;20050;-84
2023/06/03 07:42:19;;;;;;;20.23;6.93;;;;;;;13.87;100.00;100114.91;5131179;27;20072;-82
2023/06/03 07:45:03;;;;;;;22.27;7.68;;;;;;;13.75;100.00;100106.69;5132021;27;20091;-86
2023/06/03 07:47:47;;;;;;;21.40;7.85;;;;;;;13.99;100.00;100097.56;5130019;27;20049;-88
2023/06/03 07:50:32;;;;;;;19.15;7.50;;;;;;;14.18;100.00;100117.19;5131861;27;20058;-83
2023/06/03 07:53:22;;;;;;;22.08;6.93;;;;;;;14.42;100.00;100113.31;5133902;27;20054;-86
2023/06/03 07:56:09;;;;;;;27.30;7.63;;;;;;;13.83;100.00;100114.47;5125280;27;20081;-87
2023/06/03 07:58:54;;;;;;;20.40;7.00;;;;;;;14.38;100.00;100116.53;5136082;27;20054;-85
2023/06/03 08:01:39;;;;;;;18.92;7.30;;;;;;;14.06;100.00;100103.69;5118074;27;20545;-87
2023/06/03 08:04:29;;;;;;;18.08;7.65;;;;;;;14.56;100.00;100110.75;5125756;27;20331;-85
2023/06/03 08:07:13;;;;;;;17.63;7.38;;;;;;;14.85;100.00;100111.53;5133629;27;20046;-85
2023/06/03 08:09:58;;;;;;;23.20;8.85;;;;;;;13.71;100.00;100095.69;5129080;27;20050;-86
2023/06/03 08:12:45;;;;;;;19.95;7.63;;;;;;;14.65;100.00;100112.22;5126636;27;20096;-86
2023/06/03 08:15:32;;;;;;;20.08;8.40;;;;;;;14.83;100.00;100105.63;5127035;27;20777;-84
2023/06/03 08:18:44;;;;;;;16.98;8.45;;;;;;;14.57;100.00;100104.47;5136043;27;20508;-86
2023/06/03 08:21:30;;;;;;;20.85;8.15;;;;;;;14.30;100.00;100096.34;5136999;27;20058;-85
2023/06/03 08:24:14;;;;;;;18.70;8.25;;;;;;;14.25;100.00;100104.03;5129633;27;20403;-85
2023/06/03 08:26:58;;;;;;;20.40;9.15;;;;;;;14.68;100.00;100098.63;5120535;27;20084;-87
2023/06/03 08:29:42;;;;;;;17.15;7.78;;;;;;;14.80;100.00;100098.91;5134302;27;20050;-87
2023/06/03 08:32:26;;;;;;;20.58;9.52;;;;;;;14.94;100.00;100094.50;5135098;27;20042;-86
2023/06/03 08:35:11;;;;;;;23.20;11.38;;;;;;;14.98;100.00;100101.03;5129559;27;20046;-86
2023/06/03 08:37:56;;;;;;;26.25;12.60;;;;;;;14.40;100.00;100110.03;5136198;27;20046;-85
2023/06/03 08:40:46;;;;;;;21.75;11.10;;;;;;;14.64;100.00;100105.31;5120350;27;20035;-86
2023/06/03 08:43:40;;;;;;;21.00;8.60;;;;;;;15.06;100.00;100099.22;5133752;27;20038;-85
2023/06/03 08:46:34;;;;;;;;;;;;;;;14.99;100.00;100100.03;5136013;27;20078;-85
2023/06/03 08:49:25;;;;;;;16.13;7.50;;;;;;;14.65;100.00;100093.72;5135190;27;20391;-84
2023/06/03 08:52:10;;;;;;;20.75;8.38;;;;;;;15.12;99.72;100093.13;5133546;27;20058;-86
2023/06/03 08:54:59;;;;;;;15.68;6.40;;;;;;;15.11;98.16;100092.31;5131261;27;20107;-86
2023/06/03 08:57:53;;;;;;;19.65;7.50;;;;;;;15.16;98.87;100091.75;5119752;27;20065;-86
2023/06/03 09:00:38;;;;;;;14.53;7.77;;;;;;;15.40;99.75;100097.50;5129512;27;20425;-85
2023/06/03 09:03:23;;;;;;;24.35;7.50;;;;;;;15.29;97.07;100101.53;5132949;27;20744;-84
2023/06/03 09:06:08;;;;;;;22.23;7.40;;;;;;;14.95;96.55;100100.59;5130622;27;20545;-85
2023/06/03 09:08:53;;;;;;;15.85;7.70;;;;;;;14.98;96.10;100095.75;5136188;27;20073;-86
2023/06/03 09:11:39;;;;;;;22.83;7.45;;;;;;;15.01;97.06;100099.00;5135861;27;20034;-86
2023/06/03 09:14:24;;;;;;;18.45;6.95;;;;;;;15.55;95.11;100089.38;5131152;27;20402;-87
2023/06/03 09:17:08;;;;;;;17.98;6.88;;;;;;;15.51;95.07;100093.44;5115377;27;20068;-85
2023/06/03 09:19:54;;;;;;;16.05;5.75;;;;;;;15.09;94.63;100086.44;5134259;27;20122;-85
2023/06/03 09:22:41;;;;;;;15.65;6.35;;;;;;;15.48;94.54;100099.16;5133986;27;20053;-82
2023/06/03 09:25:25;;;;;;;22.10;5.80;;;;;;;15.71;94.29;100101.41;5134046;27;20037;-81
2023/06/03 09:28:10;;;;;;;12.20;6.18;;;;;;;15.99;93.68;100085.34;5133757;27;20133;-84
2023/06/03 09:30:54;;;;;;;16.98;6.03;;;;;;;15.96;92.80;100084.97;5129035;27;20046;-83
2023/06/03 09:33:40;;;;;;;15.00;6.32;;;;;;;16.02;92.93;100089.44;5122307;28;20110;-83
2023/06/03 09:36:25;;;;;;;11.98;5.95;;;;;;;16.16;93.60;100089.44;5118246;28;20104;-82
2023/06/03 09:39:10;;;;;;;16.65;6.70;;;;;;;15.91;92.00;100090.03;5123168;27;20042;-83
2023/06/03 09:41:54;;;;;;;14.45;6.43;;;;;;;16.22;91.96;100091.25;5115719;27;20066;-82
2023/06/03 09:44:41;;;;;;;15.13;6.50;;;;;;;16.26;93.34;100105.72;5134867;27;20593;-81
2023/06/03 09:47:35;;;;;;;16.25;6.03;;;;;;;16.38;93.10;100096.13;5128399;27;20140;-81
2023/06/03 09:50:20;;;;;;;13.02;5.40;;;;;;;16.27;92.38;100096.75;5127681;27;20094;-81
2023/06/03 09:53:18;;;;;;;24.13;6.75;;;;;;;16.62;92.97;100095.66;5112765;27;20127;-81
2023/06/03 09:56:26;;;;;;;17.92;6.03;;;;;;;16.33;89.29;100095.09;5120099;27;20069;-82
2023/06/03 09:59:18;;;;;;;12.65;5.47;;;;;;;16.87;88.65;100100.28;5115987;27;20058;-81
2023/06/03 10:02:10;;;;;;;15.77;5.78;;;;;;;16.80;87.30;100105.59;5127072;27;20054;-81
2023/06/03 10:04:54;;;;;;;14.35;5.50;;;;;;;16.90;87.87;100105.97;5128848;27;20095;-81
2023/06/03 10:07:46;;;;;;;17.50;6.53;;;;;;;16.71;88.58;100091.75;5115928;27;20229;-81
2023/06/03 10:10:33;;;;;;;18.00;6.57;;;;;;;16.41;87.50;100092.25;5114028;27;20480;-79
2023/06/03 10:13:19;;;;;;;17.13;6.35;;;;;;;16.71;86.40;100099.72;5127831;27;20054;-81
2023/06/03 10:16:10;;;;;;;14.73;6.15;;;;;;;16.30;86.54;100085.72;5126963;27;20405;-81
2023/06/03 10:18:54;;;;;;;13.40;6.63;;;;;;;16.68;88.24;100108.09;5126327;27;20095;-81
2023/06/03 10:21:40;;;;;;;20.65;6.93;;;;;;;17.18;87.28;100112.81;5111910;27;20511;-80
2023/06/03 10:24:27;;;;;;;16.20;7.45;;;;;;;17.13;86.94;100096.72;5128563;27;20100;-80
2023/06/03 10:27:14;;;;;;;14.13;6.75;;;;;;;17.02;87.82;100102.69;5126850;27;20092;-80
2023/06/03 10:29:59;;;;;;;16.40;7.13;;;;;;;16.93;87.34;100110.84;5128878;27;20172;-80
2023/06/03 10:32:44;;;;;;;18.38;7.70;;;;;;;17.43;87.13;100109.41;5125753;27;20054;-80
2023/06/03 10:35:31;;;;;;;14.45;6.85;;;;;;;17.54;86.13;100111.41;5110864;27;20096;-79
2023/06/03 10:38:16;;;;;;;17.00;7.07;;;;;;;17.67;83.50;100110.50;5131118;27;20126;-83
2023/06/03 10:41:01;;;;;;;18.20;6.68;;;;;;;17.32;82.65;100105.59;5134419;27;20137;-83
2023/06/03 10:43:45;;;;;;;15.65;6.13;;;;;;;17.21;82.02;100112.38;5135346;27;20039;-83
2023/06/03 10:46:32;;;;;;;12.95;6.55;;;;;;;16.63;82.78;100100.75;5134717;27;20535;-83
2023/06/03 10:49:19;;;;;;;12.48;6.28;;;;;;;17.22;82.79;100108.72;5129839;27;20038;-83
2023/06/03 10:52:26;;;;;;;16.67;7.32;;;;;;;17.44;82.86;100097.75;5128574;27;20463;-82
2023/06/03 10:55:38;;;;;;;15.93;6.85;;;;;;;17.07;82.54;100094.91;5128378;27;20046;-81
2023/06/03 10:58:26;;;;;;;16.35;7.45;;;;;;;17.02;83.31;100086.78;5128552;27;20050;-82
2023/06/03 11:01:10;;;;;;;14.70;7.45;;;;;;;17.63;82.82;100097.84;5129965;27;20405;-81
2023/06/03 11:04:02;;;;;;;16.05;7.95;;;;;;;17.63;83.38;100097.84;5121285;27;20065;-82
2023/06/03 11:06:46;;;;;;;16.70;8.60;;;;;;;17.56;83.96;100098.72;5107962;27;20041;-83
2023/06/03 11:09:30;;;;;;;13.75;7.25;;;;;;;17.93;84.26;100097.22;5133259;27;20046;-81
2023/06/03 11:12:14;;;;;;;;;;;;;;;18.29;83.68;100089.56;5132366;27;20125;-83
2023/06/03 11:14:58;;;;;;;13.50;7.03;;;;;;;17.91;81.20;100083.34;5122846;27;19926;-83
2023/06/03 11:18:17;;;;;;;15.25;6.88;;;;;;;18.31;83.34;100085.69;5127938;27;20107;-84
2023/06/03 11:21:01;;;;;;;14.85;6.85;;;;;;;18.55;80.58;100072.53;5132412;27;20084;-83
2023/06/03 11:23:45;;;;;;;15.68;7.10;;;;;;;18.51;79.70;100084.66;5117868;27;20135;-82
2023/06/03 11:26:35;;;;;;;12.88;6.50;;;;;;;18.34;80.89;100071.13;5127674;27;20068;-83
2023/06/03 11:29:41;;;;;;;16.95;7.20;;;;;;;17.66;82.45;100087.63;5127990;27;20095;-82
2023/06/03 11:32:27;;;;;;;16.08;6.50;;;;;;;18.10;81.47;100082.41;5128706;27;20065;-82
2023/06/03 11:35:11;;;;;;;13.07;6.18;;;;;;;18.04;80.77;100085.91;5133017;27;20388;-82
2023/06/03 11:37:55;;;;;;;15.93;6.35;;;;;;;18.43;81.35;100077.78;5130241;27;20172;-82
2023/06/03 11:40:44;;;;;;;18.23;7.40;;;;;;;18.58;80.98;100082.72;5130158;27;20110;-83
2023/06/03 11:43:28;;;;;;;11.30;6.20;;;;;;;18.76;78.49;100078.44;5116694;27;20057;-84
2023/06/03 11:46:12;;;;;;;12.20;6.13;;;;;;;18.46;80.23;100079.16;5128735;27;20115;-83
2023/06/03 11:48:56;;;;;;;16.55;6.43;;;;;;;18.52;78.39;100070.31;5131378;27;20095;-83
2023/06/03 11:51:41;;;;;;;15.30;5.30;;;;;;;19.04;77.83;100061.94;5132360;27;20118;-82
2023/06/03 11:54:26;;;;;;;15.88;6.20;;;;;;;18.79;76.07;100067.34;5132054;27;20057;-83
2023/06/03 11:57:10;;;;;;;14.93;5.40;;;;;;;18.89;75.97;100066.81;5131782;27;20054;-82
2023/06/03 11:59:54;;;;;;;11.38;5.78;;;;;;;18.95;74.25;100061.41;5132658;27;20084;-82
2023/06/03 12:02:46;;;;;;;15.25;5.25;;;;;;;19.09;74.39;100061.28;5132391;27;20119;-82
2023/06/03 12:05:30;;;;;;;14.40;5.70;;;;;;;19.25;74.76;100063.28;5132169;27;20119;-83
2023/06/03 12:08:14;;;;;;;13.52;5.88;;;;;;;19.49;73.90;100060.69;5132484;27;20091;-83
2023/06/03 12:10:58;;;;;;;11.98;5.95;;;;;;;19.51;73.67;100049.78;5127208;27;20089;-83
2023/06/03 12:13:42;;;;;;;17.00;7.38;;;;;;;19.90;72.37;100052.06;5112057;27;20519;-83
2023/06/03 12:16:29;;;;;;;14.77;6.50;;;;;;;19.91;71.37;100046.50;5132161;27;20127;-83
2023/06/03 12:19:13;;;;;;;12.90;5.38;;;;;;;19.93;71.97;100038.28;5126561;27;20073;-82
2023/06/03 12:21:58;;;;;;;12.90;5.50;;;;;;;20.38;71.72;100044.88;5115362;27;20116;-82
2023/06/03 12:24:43;;;;;;;9.77;5.05;;;;;;;19.79;68.31;100038.47;5130948;27;20065;-84
2023/06/03 12:27:29;;;;;;;12.38;5.28;;;;;;;19.97;66.57;100048.25;5132563;27;20068;-83
2023/06/03 12:30:33;;;;;;;10.60;4.97;;;;;;;19.58;68.09;100055.03;5132689;27;20184;-83
2023/06/03 12:33:18;;;;;;;16.25;5.28;;;;;;;19.50;67.81;100059.66;5125194;27;20046;-83
2023/06/03 12:36:02;;;;;;;15.98;6.13;;;;;;;19.61;67.93;100051.91;5129996;27;20496;-82
2023/06/03 12:38:58;;;;;;;11.85;5.10;;;;;;;20.11;66.85;100059.50;5129555;27;20058;-82